Time;durP1;ratioP1;P1;durP2;ratioP2;P2;SDS_P1;SDS_P2;PMS_P1;PMS_P2;Temp;Humidity;BMP_temperature;BMP_pressure;BME280_temperature;BME280_humidity;BME280_pressure;Samples;Min_cycle;Max_cycle;Signal;HPM_P1;HPM_P2
2022/12/25 00:01:59;;;;;;;5.75;4.72;;;;;;;9.61;100.00;100011.94;5039218;28;20067;-71
2022/12/25 00:04:24;;;;;;;5.90;3.70;;;;;;;9.60;100.00;100013.75;5039969;28;20258;-70
2022/12/25 00:06:50;;;;;;;4.32;3.42;;;;;;;9.62;100.00;100005.66;5041314;28;20362;-71
2022/12/25 00:09:15;;;;;;;6.28;3.78;;;;;;;9.64;100.00;100013.44;5041457;28;20036;-71
2022/12/25 00:11:41;;;;;;;5.35;3.63;;;;;;;9.62;100.00;100024.16;5041008;28;20420;-70
2022/12/25 00:14:06;;;;;;;6.63;3.75;;;;;;;9.66;100.00;100027.34;5040915;28;20045;-71
2022/12/25 00:16:32;;;;;;;5.25;4.28;;;;;;;9.70;99.94;100034.81;5042055;28;20200;-70
2022/12/25 00:18:57;;;;;;;6.88;4.25;;;;;;;9.74;99.21;100033.53;5040825;28;20246;-71
2022/12/25 00:21:23;;;;;;;7.07;3.75;;;;;;;9.76;99.04;100039.50;5040209;28;20037;-71
2022/12/25 00:23:53;;;;;;;6.20;3.58;;;;;;;9.84;98.47;100049.34;5040454;28;20394;-72
2022/12/25 00:26:19;;;;;;;6.53;4.43;;;;;;;9.82;97.97;100041.56;5039988;28;20029;-71
2022/12/25 00:28:45;;;;;;;9.02;4.78;;;;;;;9.85;97.20;100051.00;5039780;28;20079;-71
2022/12/25 00:31:13;;;;;;;6.35;3.85;;;;;;;9.89;97.01;100055.84;5040491;28;20048;-71
2022/12/25 00:33:40;;;;;;;5.50;3.75;;;;;;;9.90;96.39;100052.22;5040680;28;20045;-71
2022/12/25 00:36:07;;;;;;;4.50;3.20;;;;;;;9.90;96.45;100052.22;5038751;28;20494;-70
2022/12/25 00:38:33;;;;;;;4.38;2.85;;;;;;;9.85;96.55;100053.66;5041550;28;20073;-70
2022/12/25 00:40:59;;;;;;;4.07;2.65;;;;;;;9.86;96.27;100056.16;5040262;28;20104;-71
2022/12/25 00:43:24;;;;;;;4.38;3.03;;;;;;;9.81;96.30;100044.34;5040690;28;20037;-70
2022/12/25 00:45:58;;;;;;;6.20;3.45;;;;;;;9.80;96.34;100046.16;5039866;28;20076;-71
2022/12/25 00:48:24;;;;;;;4.85;2.78;;;;;;;9.81;96.29;100045.19;5041310;28;20326;-71
2022/12/25 00:50:58;;;;;;;4.55;2.78;;;;;;;9.82;95.11;100046.84;5039302;28;20040;-71
2022/12/25 00:53:24;;;;;;;;;;;;;;;9.87;95.58;100041.13;5045299;28;20029;-71
2022/12/25 00:55:55;;;;;;;3.22;2.63;;;;;;;9.80;95.66;100048.81;5041586;28;19952;-72
2022/12/25 00:58:21;;;;;;;4.53;2.92;;;;;;;9.81;95.93;100039.91;5041232;28;20358;-71
2022/12/25 01:00:48;;;;;;;6.28;3.50;;;;;;;9.76;95.96;100042.16;5039214;28;20069;-70
2022/12/25 01:03:14;;;;;;;6.47;3.17;;;;;;;9.72;96.20;100037.31;5040688;28;20116;-70
2022/12/25 01:05:39;;;;;;;7.70;3.70;;;;;;;9.65;96.16;100045.00;5039377;28;20107;-71
2022/12/25 01:08:05;;;;;;;6.95;3.53;;;;;;;9.66;96.15;100049.31;5040781;28;20604;-71
2022/12/25 01:10:30;;;;;;;4.35;2.78;;;;;;;9.61;96.66;100046.28;5040038;28;20043;-71
2022/12/25 01:12:56;;;;;;;3.80;3.40;;;;;;;9.47;97.25;100047.63;5039729;28;20036;-71
2022/12/25 01:15:21;;;;;;;4.57;2.97;;;;;;;9.51;97.58;100040.22;5043046;28;20045;-71
2022/12/25 01:17:47;;;;;;;2.83;2.30;;;;;;;9.52;96.96;100042.72;5041455;28;20025;-71
2022/12/25 01:20:14;;;;;;;6.43;3.35;;;;;;;9.46;97.05;100040.69;5040578;28;20045;-72
2022/12/25 01:22:40;;;;;;;4.55;3.53;;;;;;;9.49;97.15;100044.84;5039287;28;20046;-70
2022/12/25 01:25:06;;;;;;;4.55;2.85;;;;;;;9.51;97.02;100054.28;5039140;28;20180;-71
2022/12/25 01:27:32;;;;;;;4.78;2.70;;;;;;;9.47;97.55;100047.63;5040584;28;20045;-71
2022/12/25 01:29:57;;;;;;;4.47;2.90;;;;;;;9.47;97.75;100036.22;5035631;28;20053;-71
2022/12/25 01:32:23;;;;;;;5.90;3.05;;;;;;;9.49;97.25;100047.47;5038323;28;20246;-72
2022/12/25 01:34:48;;;;;;;6.70;3.88;;;;;;;9.53;96.81;100040.91;5037812;28;20360;-70
2022/12/25 01:37:14;;;;;;;6.70;3.75;;;;;;;9.56;96.70;100045.91;5038690;28;20278;-71
2022/12/25 01:39:39;;;;;;;4.80;3.38;;;;;;;9.50;96.86;100041.22;5038891;28;20317;-70
2022/12/25 01:42:04;;;;;;;4.25;2.58;;;;;;;9.54;97.09;100053.97;5040239;28;20270;-72
2022/12/25 01:44:36;;;;;;;3.92;2.70;;;;;;;9.57;97.10;100061.63;5038753;28;20051;-71
2022/12/25 01:47:05;;;;;;;6.78;3.10;;;;;;;9.36;97.33;100065.47;5038951;28;20226;-71
2022/12/25 01:49:34;;;;;;;4.47;3.63;;;;;;;9.50;96.56;100073.75;5038743;28;20041;-71
2022/12/25 01:52:14;;;;;;;5.18;3.55;;;;;;;9.42;97.08;100075.47;5038575;28;20052;-70
2022/12/25 01:54:44;;;;;;;7.22;3.95;;;;;;;9.44;97.39;100082.28;5038673;28;20052;-70
2022/12/25 01:57:16;;;;;;;12.27;11.27;;;;;;;9.24;97.58;100084.16;5039340;28;20042;-70
2022/12/25 01:59:42;;;;;;;8.07;6.82;;;;;;;9.09;98.52;100088.22;5039526;28;20038;-71
2022/12/25 02:02:07;;;;;;;4.18;3.25;;;;;;;9.17;98.17;100084.88;5039242;28;20445;-72
2022/12/25 02:04:50;;;;;;;6.90;3.97;;;;;;;9.07;98.96;100086.72;5039699;28;20094;-70
2022/12/25 02:07:22;;;;;;;4.57;3.28;;;;;;;9.18;98.58;100086.53;5038200;28;20096;-70
2022/12/25 02:09:48;;;;;;;9.60;4.32;;;;;;;9.17;98.49;100087.50;5040206;28;20112;-71
2022/12/25 02:12:20;;;;;;;7.75;3.97;;;;;;;9.31;98.36;100100.25;5038907;28;20037;-70
2022/12/25 02:14:48;;;;;;;6.85;5.43;;;;;;;9.24;98.10;100112.38;5036968;28;20030;-70
2022/12/25 02:17:37;;;;;;;22.67;20.58;;;;;;;9.19;98.97;100115.44;5038531;28;20160;-71
2022/12/25 02:20:21;;;;;;;4.32;3.88;;;;;;;9.46;96.77;100121.78;5037044;28;20038;-71
2022/12/25 02:22:56;;;;;;;5.45;3.22;;;;;;;9.52;96.56;100129.13;5036952;28;20041;-71
2022/12/25 02:25:39;;;;;;;5.00;3.00;;;;;;;9.61;96.10;100130.91;5036488;28;20052;-71
2022/12/25 02:28:34;;;;;;;3.65;2.85;;;;;;;9.65;94.41;100136.72;5036924;28;20059;-70
2022/12/25 02:31:13;;;;;;;40.92;18.73;;;;;;;9.57;94.44;100117.13;5032677;28;20040;-70
2022/12/25 02:34:03;;;;;;;5.53;3.75;;;;;;;9.46;95.62;100127.91;5036460;28;20100;-70
2022/12/25 02:36:54;;;;;;;5.93;3.95;;;;;;;9.45;95.96;100135.97;5035131;28;20037;-71
2022/12/25 02:42:20;;;;;;;6.07;3.97;;;;;;;9.30;97.10;100135.59;5040058;28;20436;-72
2022/12/25 03:06:41;;;;;;;8.38;4.32;;;;;;;9.13;97.77;100139.81;5039624;28;20373;-70
2022/12/25 03:07:13;;;;;;;8.43;4.97;;;;;;;9.16;96.60;100133.41;5039288;28;20044;-71
2022/12/25 03:13:09;;;;;;;10.32;6.28;;;;;;;9.24;97.13;100128.22;5036269;28;20273;-70
2022/12/25 03:18:23;;;;;;;7.57;4.30;;;;;;;9.35;96.65;100145.72;5038555;28;19927;-71
2022/12/25 03:29:03;;;;;;;7.63;4.10;;;;;;;9.30;96.02;100148.78;5036988;28;20076;-71
2022/12/25 03:31:49;;;;;;;4.85;3.75;;;;;;;9.26;95.65;100158.00;5036626;28;20045;-71
2022/12/25 04:36:08;;;;;;;7.28;4.68;;;;;;;9.13;94.88;100239.38;5044476;28;20103;-71
2022/12/25 04:38:34;;;;;;;6.75;4.07;;;;;;;9.07;94.63;100238.13;5039676;28;20045;-70
2022/12/25 04:41:00;;;;;;;8.32;5.70;;;;;;;9.07;95.00;100240.75;5038760;28;20065;-71
2022/12/25 04:43:25;;;;;;;6.70;4.82;;;;;;;9.00;95.63;100244.09;5039055;28;20033;-70
2022/12/25 04:46:01;;;;;;;6.15;4.30;;;;;;;8.99;95.73;100242.44;5040381;28;20045;-71
2022/12/25 04:48:29;;;;;;;7.85;4.95;;;;;;;8.94;96.01;100250.78;5040609;28;20041;-70
2022/12/25 04:50:55;;;;;;;9.25;5.88;;;;;;;8.80;96.64;100249.38;5038734;28;20083;-71
2022/12/25 04:53:20;;;;;;;8.77;4.95;;;;;;;8.76;96.96;100241.88;5038590;28;20349;-71
2022/12/25 04:55:46;;;;;;;10.88;6.35;;;;;;;8.89;96.69;100264.41;5040032;28;20037;-70
2022/12/25 04:58:11;;;;;;;11.35;7.05;;;;;;;8.84;96.64;100260.50;5041128;28;20219;-71
2022/12/25 05:00:37;;;;;;;9.27;7.03;;;;;;;8.80;96.87;100269.69;5040103;28;20633;-71
2022/12/25 05:03:02;;;;;;;13.30;8.15;;;;;;;8.77;97.08;100270.78;5038654;28;20123;-71
2022/12/25 05:05:28;;;;;;;12.60;7.20;;;;;;;8.76;97.15;100271.75;5038494;28;20105;-71
2022/12/25 05:07:53;;;;;;;13.73;8.02;;;;;;;8.78;97.12;100271.63;5039931;28;20219;-70
2022/12/25 05:10:19;;;;;;;10.48;7.47;;;;;;;8.77;96.56;100264.66;5041064;28;20318;-70
2022/12/25 05:12:44;;;;;;;11.70;7.28;;;;;;;8.73;97.12;100271.19;5039903;28;20338;-71
2022/12/25 05:15:10;;;;;;;9.32;6.15;;;;;;;8.70;97.08;100282.03;5040207;28;20033;-71
2022/12/25 05:17:36;;;;;;;10.60;5.97;;;;;;;8.64;97.45;100281.59;5039925;28;20060;-71
2022/12/25 05:20:03;;;;;;;12.38;6.72;;;;;;;8.64;97.76;100278.97;5037852;28;20273;-72
2022/12/25 05:22:28;;;;;;;9.65;6.65;;;;;;;8.69;97.21;100283.00;5037504;28;20041;-70
2022/12/25 05:24:53;;;;;;;17.17;8.95;;;;;;;8.78;96.69;100296.22;5039014;28;20091;-71
2022/12/25 05:27:19;;;;;;;16.52;8.70;;;;;;;8.87;96.41;100302.47;5039907;28;20041;-71
2022/12/25 05:29:44;;;;;;;16.98;10.05;;;;;;;8.95;95.47;100305.28;5039123;28;20078;-70
2022/12/25 05:32:10;;;;;;;13.27;8.07;;;;;;;8.92;95.41;100310.81;5039808;28;20033;-71
2022/12/25 05:34:35;;;;;;;10.60;6.85;;;;;;;8.94;95.39;100308.88;5039145;28;20033;-70
2022/12/25 05:37:01;;;;;;;9.75;6.75;;;;;;;8.90;95.19;100310.97;5038851;28;20045;-72
2022/12/25 05:39:26;;;;;;;12.00;6.82;;;;;;;8.84;95.68;100306.22;5039007;28;20050;-71
2022/12/25 05:41:51;;;;;;;12.30;6.93;;;;;;;8.82;95.95;100308.19;5038368;28;20102;-70
2022/12/25 05:44:17;;;;;;;11.82;7.70;;;;;;;8.84;95.67;100316.78;5040034;28;20033;-71
2022/12/25 05:46:42;;;;;;;12.00;7.15;;;;;;;8.85;95.56;100321.09;5039101;28;20036;-70
2022/12/25 05:49:08;;;;;;;9.90;7.25;;;;;;;8.83;95.49;100333.59;5040079;28;20223;-70
2022/12/25 05:51:33;;;;;;;11.93;7.80;;;;;;;8.83;95.40;100336.25;5039469;28;20416;-71
2022/12/25 05:53:59;;;;;;;12.38;8.55;;;;;;;8.88;95.44;100343.75;5039867;28;20079;-71
2022/12/25 05:56:24;;;;;;;11.90;8.60;;;;;;;8.87;95.37;100352.66;5039751;28;20052;-71
2022/12/25 05:58:50;;;;;;;16.00;8.90;;;;;;;8.87;95.04;100361.41;5039539;28;20055;-70
2022/12/25 06:01:19;;;;;;;13.57;8.73;;;;;;;8.82;95.37;100370.72;5037509;28;20108;-71
2022/12/25 06:03:45;;;;;;;15.57;9.75;;;;;;;8.89;95.39;100366.56;5038823;28;20127;-72
2022/12/25 06:06:11;;;;;;;18.13;11.10;;;;;;;8.86;95.12;100374.75;5037537;28;20354;-71
2022/12/25 06:08:36;;;;;;;17.30;10.95;;;;;;;8.97;94.54;100379.91;5038565;28;20045;-71
2022/12/25 06:11:04;;;;;;;18.95;10.93;;;;;;;9.06;93.95;100383.56;5039434;28;20037;-70
2022/12/25 06:13:30;;;;;;;17.70;10.90;;;;;;;9.13;93.49;100384.66;5039552;28;20104;-71
2022/12/25 06:15:56;;;;;;;21.15;14.73;;;;;;;9.12;93.34;100386.47;5039464;28;20037;-71
2022/12/25 06:18:21;;;;;;;21.58;16.33;;;;;;;9.18;93.17;100396.50;5038794;28;20319;-71
2022/12/25 06:20:47;;;;;;;26.58;16.98;;;;;;;9.18;92.87;100391.22;5037697;28;20346;-71
2022/12/25 06:23:12;;;;;;;24.88;16.35;;;;;;;9.20;93.48;100399.00;5037091;28;20053;-70
2022/12/25 06:25:39;;;;;;;23.05;15.93;;;;;;;9.14;94.02;100403.03;5036174;28;20033;-71
2022/12/25 06:28:05;;;;;;;16.85;12.05;;;;;;;9.19;93.63;100406.09;5038139;28;20030;-70
2022/12/25 06:30:31;;;;;;;15.55;10.40;;;;;;;9.16;93.84;100394.97;5038218;28;20060;-70
2022/12/25 06:32:58;;;;;;;12.23;9.05;;;;;;;9.10;93.73;100398.16;5038682;28;20622;-69
2022/12/25 06:35:23;;;;;;;13.18;9.43;;;;;;;9.01;94.57;100402.44;5037818;28;20096;-71
2022/12/25 06:37:49;;;;;;;12.43;9.48;;;;;;;9.04;95.01;100410.09;5037976;28;20056;-71
2022/12/25 06:40:14;;;;;;;12.30;8.68;;;;;;;8.99;95.56;100407.03;5038354;28;20026;-70
2022/12/25 06:42:40;;;;;;;18.23;10.65;;;;;;;8.96;95.98;100407.31;5037223;28;20041;-70
2022/12/25 06:45:06;;;;;;;16.00;10.23;;;;;;;8.92;95.96;100409.38;5036593;28;20045;-70
2022/12/25 06:47:31;;;;;;;16.88;10.55;;;;;;;8.95;96.46;100409.13;5036950;28;20083;-71
2022/12/25 06:49:57;;;;;;;17.23;10.38;;;;;;;8.93;96.73;100420.78;5037795;28;20515;-71
2022/12/25 06:52:22;;;;;;;17.73;10.45;;;;;;;8.99;96.79;100424.69;5038269;28;20034;-71
2022/12/25 06:54:48;;;;;;;18.55;11.18;;;;;;;8.99;96.92;100422.06;5037147;28;20384;-71
2022/12/25 06:57:13;;;;;;;13.38;9.80;;;;;;;9.00;97.00;100429.84;5037801;28;20041;-70
2022/12/25 06:59:38;;;;;;;14.48;10.40;;;;;;;9.08;97.51;100423.88;5037296;28;20044;-71
2022/12/25 07:02:04;;;;;;;15.93;9.55;;;;;;;9.14;97.46;100429.44;5036510;28;20268;-70
2022/12/25 07:04:37;;;;;;;14.57;10.02;;;;;;;9.20;96.95;100426.25;5036042;28;20041;-70
2022/12/25 07:07:04;;;;;;;14.57;9.63;;;;;;;9.25;96.85;100426.69;5037626;28;20061;-70
2022/12/25 07:09:29;;;;;;;12.85;9.45;;;;;;;9.25;97.04;100425.84;5052652;28;20090;-71
2022/12/25 07:12:05;;;;;;;14.32;9.68;;;;;;;9.26;97.22;100419.59;5057618;28;20339;-70
2022/12/25 07:14:31;;;;;;;13.60;10.15;;;;;;;9.35;97.45;100425.88;5057672;28;20052;-71
2022/12/25 07:16:56;;;;;;;15.65;9.55;;;;;;;9.52;96.75;100438.44;5057935;28;20315;-70
2022/12/25 07:19:22;;;;;;;9.55;7.28;;;;;;;9.64;95.63;100439.97;5056836;28;20040;-71
2022/12/25 07:21:47;;;;;;;14.00;7.20;;;;;;;9.80;94.98;100452.63;5057623;28;20104;-71
2022/12/25 07:24:20;;;;;;;8.38;6.18;;;;;;;9.99;93.32;100451.78;5057202;28;20664;-71
2022/12/25 07:26:46;;;;;;;6.83;5.23;;;;;;;10.11;92.51;100438.25;5057455;28;20384;-71
2022/12/25 07:29:11;;;;;;;8.65;6.28;;;;;;;10.20;92.65;100445.38;5056689;28;20056;-71
2022/12/25 07:31:37;;;;;;;11.48;7.65;;;;;;;10.32;91.45;100456.63;5056960;28;20032;-70
2022/12/25 07:34:02;;;;;;;9.90;6.78;;;;;;;10.40;90.99;100442.69;5057446;28;20041;-71
2022/12/25 07:36:29;;;;;;;10.38;6.57;;;;;;;10.54;91.68;100448.38;5057595;28;20037;-71
2022/12/25 07:38:55;;;;;;;10.95;7.38;;;;;;;10.65;90.66;100442.06;5057608;28;20040;-72
2022/12/25 07:41:21;;;;;;;9.23;6.57;;;;;;;10.71;90.21;100449.44;5057385;28;20222;-70
2022/12/25 07:43:50;;;;;;;9.40;6.95;;;;;;;10.77;90.28;100451.50;5057106;28;20087;-71
2022/12/25 07:46:16;;;;;;;8.88;6.30;;;;;;;10.84;90.05;100454.38;5041487;28;20119;-70
2022/12/25 07:48:42;;;;;;;10.50;6.43;;;;;;;10.84;89.39;100455.22;5061371;28;20033;-70
2022/12/25 07:51:12;;;;;;;13.82;5.93;;;;;;;10.80;89.32;100460.97;5060062;28;20350;-71
2022/12/25 07:53:38;;;;;;;9.95;6.45;;;;;;;10.86;89.51;100461.22;5061521;28;20037;-71
2022/12/25 07:56:12;;;;;;;8.57;5.82;;;;;;;10.96;89.37;100468.28;5061102;28;20273;-71
2022/12/25 07:58:38;;;;;;;7.32;5.15;;;;;;;10.96;89.37;100466.47;5060398;28;20280;-71
2022/12/25 08:01:06;;;;;;;8.05;5.72;;;;;;;11.01;89.87;100461.56;5060840;28;20033;-71
2022/12/25 08:03:32;;;;;;;9.50;6.05;;;;;;;11.06;90.01;100467.25;5060570;28;20049;-71
2022/12/25 08:06:03;;;;;;;18.15;10.27;;;;;;;11.10;89.68;100478.38;5060268;28;20286;-71
2022/12/25 08:08:29;;;;;;;12.57;8.10;;;;;;;11.15;90.09;100484.06;5061384;28;20055;-72
2022/12/25 08:10:55;;;;;;;10.73;7.70;;;;;;;11.27;90.10;100482.91;5060867;28;20286;-70
2022/12/25 08:13:20;;;;;;;8.18;5.82;;;;;;;11.28;90.17;100489.88;5061272;28;20032;-71
2022/12/25 08:15:46;;;;;;;9.07;6.32;;;;;;;11.38;90.38;100495.13;5042806;28;20115;-70
2022/12/25 08:18:11;;;;;;;9.85;6.25;;;;;;;11.51;90.48;100496.44;5060633;28;20035;-71
2022/12/25 08:20:37;;;;;;;7.00;5.28;;;;;;;11.57;89.41;100500.31;5060467;28;20037;-70
2022/12/25 08:23:03;;;;;;;6.90;4.47;;;;;;;11.59;88.87;100505.47;5060877;28;20068;-71
2022/12/25 08:25:28;;;;;;;7.75;5.10;;;;;;;11.65;89.26;100505.72;5060523;28;20096;-70
2022/12/25 08:27:54;;;;;;;8.05;4.85;;;;;;;11.74;88.49;100509.28;5060118;28;20044;-71
2022/12/25 08:30:19;;;;;;;7.30;5.35;;;;;;;11.83;88.37;100511.91;5060018;28;20041;-70
2022/12/25 08:32:44;;;;;;;7.15;5.70;;;;;;;11.91;87.58;100508.47;5060987;28;20032;-70
2022/12/25 08:35:10;;;;;;;7.07;5.18;;;;;;;12.03;86.75;100514.38;5060070;28;20059;-72
2022/12/25 08:37:35;;;;;;;8.48;6.20;;;;;;;12.17;87.27;100519.16;5060595;28;20295;-71
2022/12/25 08:40:01;;;;;;;5.75;4.60;;;;;;;12.08;85.54;100525.38;5059941;28;20047;-71
2022/12/25 08:42:26;;;;;;;7.78;4.60;;;;;;;12.27;86.28;100532.34;5059824;28;20245;-70
2022/12/25 08:44:52;;;;;;;8.55;6.20;;;;;;;12.42;86.57;100526.31;5059823;28;20079;-71
2022/12/25 08:47:17;;;;;;;7.03;4.80;;;;;;;12.53;85.67;100521.78;5060485;28;20028;-71
2022/12/25 08:49:42;;;;;;;9.73;6.28;;;;;;;12.62;85.63;100507.56;5059760;28;20044;-71
2022/12/25 08:52:08;;;;;;;9.45;6.18;;;;;;;12.70;84.39;100512.91;5060258;28;20037;-70
2022/12/25 08:54:35;;;;;;;7.45;4.95;;;;;;;12.73;84.35;100507.28;5046878;28;20045;-70
2022/12/25 08:57:01;;;;;;;6.03;4.28;;;;;;;12.69;82.03;100512.09;5059277;28;20033;-71
2022/12/25 08:59:26;;;;;;;5.00;4.18;;;;;;;12.60;82.13;100509.53;5059482;28;20041;-70
2022/12/25 09:01:52;;;;;;;4.45;3.63;;;;;;;12.64;83.71;100511.72;5059656;28;20051;-71
2022/12/25 09:04:17;;;;;;;5.57;3.47;;;;;;;12.69;84.26;100496.16;5059000;28;20033;-71
2022/12/25 09:06:43;;;;;;;5.63;3.70;;;;;;;12.71;82.26;100504.78;5060170;28;20037;-71
2022/12/25 09:09:08;;;;;;;6.93;4.10;;;;;;;12.74;81.77;100509.78;5059847;28;20040;-71
2022/12/25 09:11:33;;;;;;;5.35;4.40;;;;;;;12.77;81.92;100500.66;5059490;28;20029;-71
2022/12/25 09:13:59;;;;;;;4.00;3.33;;;;;;;12.78;81.96;100500.50;5059798;28;20041;-71
2022/12/25 09:16:24;;;;;;;4.72;3.10;;;;;;;12.72;81.41;100498.50;5059613;28;20033;-71
2022/12/25 09:18:50;;;;;;;5.25;3.70;;;;;;;12.82;81.13;100493.06;5059203;28;20045;-71
2022/12/25 09:21:16;;;;;;;4.15;2.88;;;;;;;12.81;79.59;100498.53;5058743;28;20033;-71
2022/12/25 09:23:42;;;;;;;3.38;2.30;;;;;;;12.76;78.14;100497.19;5059380;28;20049;-71
2022/12/25 09:26:12;;;;;;;4.57;3.05;;;;;;;12.84;78.41;100500.88;5059479;28;20364;-72
2022/12/25 09:28:37;;;;;;;4.55;2.90;;;;;;;12.88;78.72;100497.75;5058791;28;20096;-71
2022/12/25 09:31:03;;;;;;;6.40;3.28;;;;;;;12.94;79.27;100501.59;5059132;28;20219;-71
2022/12/25 09:33:29;;;;;;;3.28;2.38;;;;;;;12.95;76.86;100495.28;5059894;28;20047;-71
2022/12/25 09:35:57;;;;;;;2.83;2.00;;;;;;;12.97;76.45;100491.47;5059144;28;20067;-71
2022/12/25 09:38:23;;;;;;;2.90;2.10;;;;;;;13.02;75.22;100488.34;5059613;28;20048;-71
2022/12/25 09:41:01;;;;;;;2.70;2.10;;;;;;;13.00;76.25;100485.84;5058894;28;20033;-72
2022/12/25 09:43:30;;;;;;;3.20;2.50;;;;;;;13.09;76.79;100484.03;5058781;28;20118;-71
2022/12/25 09:45:58;;;;;;;3.67;2.85;;;;;;;13.16;76.73;100485.06;5059027;28;20330;-71
2022/12/25 09:48:24;;;;;;;5.57;2.88;;;;;;;13.19;75.43;100483.94;5058984;28;20138;-70
2022/12/25 09:50:54;;;;;;;3.92;2.55;;;;;;;13.19;74.26;100489.25;5058874;28;20046;-70
2022/12/25 09:53:24;;;;;;;4.05;2.63;;;;;;;13.23;73.92;100483.47;5059252;28;20044;-71
2022/12/25 09:56:05;;;;;;;3.90;2.35;;;;;;;13.27;74.32;100483.97;5058949;28;20048;-70
2022/12/25 09:58:32;;;;;;;5.28;3.10;;;;;;;13.33;75.43;100476.19;5060203;28;20040;-70
2022/12/25 10:01:13;;;;;;;3.53;2.67;;;;;;;13.37;74.62;100474.03;5058780;28;20056;-71
2022/12/25 10:03:50;;;;;;;5.00;2.60;;;;;;;13.39;74.70;100474.69;5059047;28;20052;-70
2022/12/25 10:06:40;;;;;;;5.68;3.50;;;;;;;13.46;75.11;100485.53;5044916;28;20049;-71
2022/12/25 10:09:12;;;;;;;3.60;2.22;;;;;;;13.45;74.77;100478.53;5057091;28;20087;-71
2022/12/25 10:12:22;;;;;;;7.95;2.90;;;;;;;13.53;72.82;100483.91;5058349;28;20104;-71
2022/12/25 10:15:32;;;;;;;4.90;2.72;;;;;;;13.58;75.01;100485.09;5047599;28;20095;-71
2022/12/25 10:18:26;;;;;;;10.18;4.07;;;;;;;13.61;72.36;100483.91;4938881;29;20078;-71
2022/12/25 10:20:56;;;;;;;7.35;3.60;;;;;;;13.64;71.71;100486.25;5054795;28;20076;-70
2022/12/25 10:23:35;;;;;;;5.05;2.80;;;;;;;13.65;71.15;100479.94;5058217;28;20092;-71
2022/12/25 10:26:01;;;;;;;8.07;4.32;;;;;;;13.66;71.10;100487.75;5046708;28;20041;-70
2022/12/25 10:28:41;;;;;;;4.32;2.60;;;;;;;13.67;70.79;100485.94;5057828;28;20051;-70
2022/12/25 10:31:19;;;;;;;3.25;2.20;;;;;;;13.67;70.40;100486.75;5058292;28;20061;-70
2022/12/25 10:33:45;;;;;;;3.15;1.73;;;;;;;13.76;72.19;100478.78;5058268;28;20040;-71
2022/12/25 10:36:12;;;;;;;6.55;3.58;;;;;;;13.83;70.74;100490.44;5057501;28;20113;-72
2022/12/25 10:38:38;;;;;;;2.60;1.45;;;;;;;13.85;68.12;100485.78;5057454;28;20106;-71
2022/12/25 10:41:28;;;;;;;4.68;1.50;;;;;;;13.84;66.56;100479.63;5057508;28;20337;-71
2022/12/25 10:43:56;;;;;;;2.53;1.55;;;;;;;13.83;66.64;100474.47;5046656;28;20056;-71
2022/12/25 10:46:24;;;;;;;2.90;1.60;;;;;;;13.84;67.02;100476.97;5057996;28;20037;-70
2022/12/25 10:49:13;;;;;;;3.22;1.80;;;;;;;13.91;66.07;100469.16;5057723;28;20163;-69
2022/12/25 10:51:39;;;;;;;3.97;1.60;;;;;;;13.94;66.49;100459.00;5057868;28;20037;-71
2022/12/25 10:54:24;;;;;;;2.97;1.30;;;;;;;13.97;66.78;100457.84;5057697;28;20036;-70
2022/12/25 10:57:15;;;;;;;1.40;1.15;;;;;;;13.98;65.38;100459.50;5056655;28;20314;-71
2022/12/25 10:59:47;;;;;;;1.60;1.20;;;;;;;13.97;65.19;100445.34;5057044;28;20048;-71
2022/12/25 11:02:31;;;;;;;1.92;1.25;;;;;;;14.01;65.64;100446.69;5057624;28;20037;-71
2022/12/25 11:05:09;;;;;;;1.98;1.23;;;;;;;14.03;66.46;100444.69;5046319;28;20338;-70
2022/12/25 11:07:45;;;;;;;2.80;0.90;;;;;;;14.01;64.68;100444.03;5057737;28;20041;-71
2022/12/25 11:10:22;;;;;;;1.55;1.17;;;;;;;14.00;63.19;100438.88;5048784;28;20078;-71
2022/12/25 11:12:48;;;;;;;1.70;0.98;;;;;;;13.92;63.71;100436.19;5038331;28;20029;-71
2022/12/25 11:15:32;;;;;;;2.05;1.10;;;;;;;13.83;64.17;100447.84;5036360;28;20041;-71
2022/12/25 11:17:58;;;;;;;;;;;;;;;13.89;64.28;100447.19;5039032;28;20094;-70
2022/12/25 11:20:23;;;;;;;1.30;0.80;;;;;;;13.79;64.78;100447.34;5038025;28;20210;-71
2022/12/25 11:22:49;;;;;;;2.92;1.40;;;;;;;13.85;64.29;100449.34;5040083;28;20037;-72
2022/12/25 11:25:25;;;;;;;3.88;0.98;;;;;;;13.92;63.95;100452.19;5041452;28;20096;-71
2022/12/25 11:28:05;;;;;;;1.98;0.90;;;;;;;13.94;62.73;100445.69;5042108;28;20308;-71
2022/12/25 11:30:33;;;;;;;1.73;1.10;;;;;;;13.93;62.53;100445.84;5041200;28;20299;-71
2022/12/25 11:33:04;;;;;;;2.03;1.00;;;;;;;13.93;61.83;100445.84;5041453;28;20033;-71
2022/12/25 11:35:36;;;;;;;2.05;1.00;;;;;;;13.97;62.34;100441.84;5041466;28;20317;-71
2022/12/25 11:38:02;;;;;;;1.83;0.85;;;;;;;14.02;62.07;100440.34;5041627;28;20033;-71
2022/12/25 11:40:35;;;;;;;2.03;0.82;;;;;;;14.01;60.87;100441.34;5041894;28;20071;-71
2022/12/25 11:43:13;;;;;;;3.25;1.10;;;;;;;14.00;61.84;100442.34;5042043;28;20041;-70
2022/12/25 11:45:47;;;;;;;2.00;1.20;;;;;;;14.01;62.32;100444.03;5041077;28;20033;-68
2022/12/25 11:48:18;;;;;;;2.22;1.10;;;;;;;14.05;62.42;100442.69;5042198;28;20087;-71
2022/12/25 11:50:48;;;;;;;1.88;1.38;;;;;;;14.08;61.90;100444.19;5040371;28;20422;-71
2022/12/25 11:53:20;;;;;;;2.00;1.15;;;;;;;14.13;61.60;100451.66;5039266;28;20047;-72
2022/12/25 11:55:53;;;;;;;1.38;1.20;;;;;;;14.16;63.57;100443.34;5041651;28;20101;-72
2022/12/25 11:58:32;;;;;;;1.10;1.00;;;;;;;14.14;63.54;100450.66;5040620;28;20036;-71
2022/12/25 12:01:00;;;;;;;1.40;1.00;;;;;;;14.12;61.12;100458.00;5040319;28;20350;-71
2022/12/25 12:03:36;;;;;;;1.48;0.90;;;;;;;14.15;58.49;100450.50;5041317;28;20069;-71
2022/12/25 12:06:16;;;;;;;2.65;0.90;;;;;;;14.09;59.27;100439.69;5040838;28;20449;-71
2022/12/25 12:08:42;;;;;;;1.73;0.77;;;;;;;14.16;61.46;100448.66;5040595;28;20049;-71
2022/12/25 12:11:40;;;;;;;1.05;0.70;;;;;;;14.14;60.52;100432.03;5041911;28;20220;-71
2022/12/25 12:14:36;;;;;;;1.58;1.00;;;;;;;14.17;60.09;100445.00;5040106;28;20546;-73
2022/12/25 12:17:05;;;;;;;2.03;1.30;;;;;;;14.16;60.54;100446.00;5023351;28;20108;-69
2022/12/25 12:19:33;;;;;;;3.33;0.90;;;;;;;14.13;59.43;100443.69;5023111;28;20045;-71
2022/12/25 12:22:02;;;;;;;2.25;1.20;;;;;;;14.14;59.94;100442.69;5041577;28;20041;-71
2022/12/25 12:24:34;;;;;;;1.80;1.00;;;;;;;14.16;60.47;100443.34;5042948;28;20113;-71
2022/12/25 12:27:20;;;;;;;1.60;1.05;;;;;;;14.16;59.63;100449.50;5040709;28;20377;-69
2022/12/25 12:29:51;;;;;;;1.20;0.88;;;;;;;14.21;60.99;100449.00;5038986;28;20041;-70
2022/12/25 12:32:28;;;;;;;2.13;1.20;;;;;;;14.25;62.54;100448.50;5038843;28;20338;-71
2022/12/25 12:34:55;;;;;;;5.05;1.33;;;;;;;14.25;62.02;100453.81;5039606;28;20052;-69
2022/12/25 12:37:29;;;;;;;1.80;1.20;;;;;;;14.20;62.11;100456.16;5039368;28;20230;-69
2022/12/25 12:39:55;;;;;;;;;;;;;;;14.25;62.00;100451.16;5040979;28;20242;-69
2022/12/25 12:42:34;;;;;;;2.72;1.08;;;;;;;14.21;61.99;100449.84;5040350;28;19920;-68
2022/12/25 12:45:13;;;;;;;1.17;0.98;;;;;;;14.22;62.80;100458.66;5039958;28;20346;-69
2022/12/25 12:47:47;;;;;;;1.95;1.08;;;;;;;14.20;62.62;100463.31;5040068;28;20029;-69
2022/12/25 12:50:39;;;;;;;2.40;1.30;;;;;;;14.20;61.91;100461.47;5043427;28;20331;-69
2022/12/25 12:53:20;;;;;;;1.13;1.02;;;;;;;14.20;61.56;100461.47;5041465;28;20043;-71
2022/12/25 12:55:45;;;;;;;1.70;1.25;;;;;;;14.21;62.42;100454.31;5040784;28;20052;-71
2022/12/25 12:58:34;;;;;;;1.38;1.00;;;;;;;14.21;62.42;100463.16;5040360;28;20029;-71
2022/12/25 13:01:05;;;;;;;2.80;1.25;;;;;;;14.22;61.87;100458.66;5040105;28;20078;-69
2022/12/25 13:04:28;;;;;;;2.42;1.60;;;;;;;14.18;62.56;100458.16;5039686;28;20091;-69
2022/12/25 13:07:20;;;;;;;2.55;1.67;;;;;;;14.14;62.77;100459.50;4974615;28;20043;-68
2022/12/25 13:10:01;;;;;;;2.60;1.67;;;;;;;14.19;62.75;100465.16;4975831;28;20038;-69
2022/12/25 13:12:27;;;;;;;1.50;1.40;;;;;;;14.19;62.37;100466.97;5035689;28;20262;-70
2022/12/25 13:14:52;;;;;;;2.13;1.65;;;;;;;14.07;62.42;100466.47;5039582;28;20080;-68
2022/12/25 13:17:22;;;;;;;2.30;1.73;;;;;;;14.14;63.40;100471.97;5040153;28;20037;-68
2022/12/25 13:19:56;;;;;;;3.35;1.88;;;;;;;14.14;63.92;100462.16;5055976;28;20039;-68